sensor_id;sensor_type;location;lat;lon;timestamp;pressure;altitude;pressure_sealevel;temperature;humidity
5574;BME280;2563;52.242;7.956;2023-05-19T00:00:35;102069.94;;;5.92;100.00
5574;BME280;2563;52.242;7.956;2023-05-19T00:03:01;102049.38;;;5.84;100.00
5574;BME280;2563;52.242;7.956;2023-05-19T00:05:27;102060.34;;;5.82;100.00
5574;BME280;2563;52.242;7.956;2023-05-19T00:07:57;102060.25;;;5.75;100.00
5574;BME280;2563;52.242;7.956;2023-05-19T00:10:23;102055.06;;;5.71;100.00
5574;BME280;2563;52.242;7.956;2023-05-19T00:12:49;102055.75;;;5.64;100.00
5574;BME280;2563;52.242;7.956;2023-05-19T00:15:15;102045.44;;;5.59;100.00
5574;BME280;2563;52.242;7.956;2023-05-19T00:17:41;102052.22;;;5.57;100.00
5574;BME280;2563;52.242;7.956;2023-05-19T00:20:07;102053.81;;;5.52;100.00
5574;BME280;2563;52.242;7.956;2023-05-19T00:22:33;102053.75;;;5.50;100.00
5574;BME280;2563;52.242;7.956;2023-05-19T00:24:58;102059.72;;;5.49;100.00
5574;BME280;2563;52.242;7.956;2023-05-19T00:27:23;102059.63;;;5.45;100.00
5574;BME280;2563;52.242;7.956;2023-05-19T00:29:49;102056.16;;;5.41;100.00
5574;BME280;2563;52.242;7.956;2023-05-19T00:32:14;102063.88;;;5.44;100.00
5574;BME280;2563;52.242;7.956;2023-05-19T00:34:40;102058.75;;;5.44;100.00
5574;BME280;2563;52.242;7.956;2023-05-19T00:37:05;102062.13;;;5.42;100.00
5574;BME280;2563;52.242;7.956;2023-05-19T00:39:31;102054.38;;;5.39;100.00
5574;BME280;2563;52.242;7.956;2023-05-19T00:41:56;102058.66;;;5.40;100.00
5574;BME280;2563;52.242;7.956;2023-05-19T00:44:21;102060.34;;;5.39;100.00
5574;BME280;2563;52.242;7.956;2023-05-19T00:46:47;102060.25;;;5.35;100.00
5574;BME280;2563;52.242;7.956;2023-05-19T00:49:12;102061.00;;;5.30;100.00
5574;BME280;2563;52.242;7.956;2023-05-19T00:51:38;102061.75;;;5.26;100.00
5574;BME280;2563;52.242;7.956;2023-05-19T00:54:04;102060.00;;;5.22;100.00
5574;BME280;2563;52.242;7.956;2023-05-19T00:56:30;102054.78;;;5.19;100.00
5574;BME280;2563;52.242;7.956;2023-05-19T00:58:56;102049.69;;;5.18;100.00
5574;BME280;2563;52.242;7.956;2023-05-19T01:01:22;102038.63;;;5.17;100.00
5574;BME280;2563;52.242;7.956;2023-05-19T01:03:50;102042.72;;;5.12;100.00
5574;BME280;2563;52.242;7.956;2023-05-19T01:06:16;102035.06;;;5.12;100.00
5574;BME280;2563;52.242;7.956;2023-05-19T01:08:43;102025.69;;;5.11;100.00
5574;BME280;2563;52.242;7.956;2023-05-19T01:11:08;102026.44;;;5.05;100.00
5574;BME280;2563;52.242;7.956;2023-05-19T01:13:35;102015.34;;;5.03;100.00
5574;BME280;2563;52.242;7.956;2023-05-19T01:19:00;101999.91;;;4.99;100.00
5574;BME280;2563;52.242;7.956;2023-05-19T01:22:05;101990.41;;;4.92;100.00
5574;BME280;2563;52.242;7.956;2023-05-19T01:32:37;101970.63;;;4.81;100.00
5574;BME280;2563;52.242;7.956;2023-05-19T01:35:06;101955.81;;;4.66;100.00
5574;BME280;2563;52.242;7.956;2023-05-19T01:37:33;101955.13;;;4.74;100.00
5574;BME280;2563;52.242;7.956;2023-05-19T01:39:59;101949.06;;;4.68;100.00
5574;BME280;2563;52.242;7.956;2023-05-19T01:42:25;101947.41;;;4.71;100.00
5574;BME280;2563;52.242;7.956;2023-05-19T01:44:51;101946.50;;;4.68;100.00
5574;BME280;2563;52.242;7.956;2023-05-19T01:47:18;101942.13;;;4.63;100.00
5574;BME280;2563;52.242;7.956;2023-05-19T01:49:43;101947.94;;;4.56;100.00
5574;BME280;2563;52.242;7.956;2023-05-19T01:52:09;101941.28;;;4.62;100.00
5574;BME280;2563;52.242;7.956;2023-05-19T01:54:34;101930.59;;;4.41;100.00
5574;BME280;2563;52.242;7.956;2023-05-19T02:02:15;101931.38;;;4.38;100.00
5574;BME280;2563;52.242;7.956;2023-05-19T02:04:54;101920.97;;;4.31;100.00
5574;BME280;2563;52.242;7.956;2023-05-19T02:07:51;101913.28;;;4.28;100.00
5574;BME280;2563;52.242;7.956;2023-05-19T02:10:20;101913.31;;;4.29;100.00
5574;BME280;2563;52.242;7.956;2023-05-19T02:12:49;101903.91;;;4.26;100.00
5574;BME280;2563;52.242;7.956;2023-05-19T02:15:22;101907.78;;;4.11;100.00
5574;BME280;2563;52.242;7.956;2023-05-19T02:17:49;101905.06;;;4.04;100.00
5574;BME280;2563;52.242;7.956;2023-05-19T02:20:18;101892.31;;;4.04;100.00
5574;BME280;2563;52.242;7.956;2023-05-19T02:22:44;101889.88;;;4.08;100.00
5574;BME280;2563;52.242;7.956;2023-05-19T02:25:09;101882.81;;;3.97;100.00
5574;BME280;2563;52.242;7.956;2023-05-19T02:27:36;101882.13;;;4.04;100.00
5574;BME280;2563;52.242;7.956;2023-05-19T02:30:06;101881.28;;;4.04;100.00
5574;BME280;2563;52.242;7.956;2023-05-19T02:32:32;101867.63;;;4.02;100.00
5574;BME280;2563;52.242;7.956;2023-05-19T02:34:58;101871.94;;;4.04;100.00
5574;BME280;2563;52.242;7.956;2023-05-19T02:37:24;101865.97;;;4.02;100.00
5574;BME280;2563;52.242;7.956;2023-05-19T02:39:53;101872.66;;;3.99;100.00
5574;BME280;2563;52.242;7.956;2023-05-19T02:42:18;101864.28;;;4.03;100.00
5574;BME280;2563;52.242;7.956;2023-05-19T02:44:44;101858.09;;;3.93;100.00
5574;BME280;2563;52.242;7.956;2023-05-19T02:47:09;101861.38;;;3.89;100.00
5574;BME280;2563;52.242;7.956;2023-05-19T02:49:34;101861.47;;;3.92;100.00
5574;BME280;2563;52.242;7.956;2023-05-19T02:52:01;101853.53;;;3.80;100.00
5574;BME280;2563;52.242;7.956;2023-05-19T02:54:31;101860.44;;;3.84;100.00
5574;BME280;2563;52.242;7.956;2023-05-19T02:56:57;101850.97;;;3.78;100.00
5574;BME280;2563;52.242;7.956;2023-05-19T02:59:23;101852.78;;;3.84;100.00
5574;BME280;2563;52.242;7.956;2023-05-19T03:01:54;101847.28;;;3.69;100.00
5574;BME280;2563;52.242;7.956;2023-05-19T03:04:20;101841.22;;;3.62;100.00
5574;BME280;2563;52.242;7.956;2023-05-19T03:06:45;101846.19;;;3.59;100.00
5574;BME280;2563;52.242;7.956;2023-05-19T03:09:14;101839.69;;;3.70;100.00
5574;BME280;2563;52.242;7.956;2023-05-19T03:11:39;101833.75;;;3.70;100.00
5574;BME280;2563;52.242;7.956;2023-05-19T03:14:05;101829.50;;;3.70;100.00
5574;BME280;2563;52.242;7.956;2023-05-19T03:16:30;101828.59;;;3.67;100.00
5574;BME280;2563;52.242;7.956;2023-05-19T03:18:56;101818.25;;;3.60;100.00
5574;BME280;2563;52.242;7.956;2023-05-19T03:21:22;101820.63;;;3.54;100.00
5574;BME280;2563;52.242;7.956;2023-05-19T03:23:47;101824.13;;;3.58;100.00
5574;BME280;2563;52.242;7.956;2023-05-19T03:26:13;101818.13;;;3.56;100.00
5574;BME280;2563;52.242;7.956;2023-05-19T03:28:38;101810.53;;;3.57;100.00
5574;BME280;2563;52.242;7.956;2023-05-19T03:31:04;101816.44;;;3.56;100.00
5574;BME280;2563;52.242;7.956;2023-05-19T03:33:29;101810.34;;;3.50;100.00
5574;BME280;2563;52.242;7.956;2023-05-19T03:35:55;101807.34;;;3.31;100.00
5574;BME280;2563;52.242;7.956;2023-05-19T03:38:21;101817.63;;;3.36;100.00
5574;BME280;2563;52.242;7.956;2023-05-19T03:40:46;101812.84;;;3.48;100.00
5574;BME280;2563;52.242;7.956;2023-05-19T03:43:12;101815.44;;;3.50;100.00
5574;BME280;2563;52.242;7.956;2023-05-19T03:45:37;101823.09;;;3.51;100.00
5574;BME280;2563;52.242;7.956;2023-05-19T03:48:03;101818.53;;;3.38;100.00
5574;BME280;2563;52.242;7.956;2023-05-19T03:50:28;101823.94;;;3.50;100.00
5574;BME280;2563;52.242;7.956;2023-05-19T03:52:56;101830.31;;;3.68;100.00
5574;BME280;2563;52.242;7.956;2023-05-19T03:55:21;101818.59;;;3.76;100.00
5574;BME280;2563;52.242;7.956;2023-05-19T03:57:47;101819.50;;;3.76;100.00
5574;BME280;2563;52.242;7.956;2023-05-19T04:00:13;101820.28;;;3.74;100.00
5574;BME280;2563;52.242;7.956;2023-05-19T04:02:38;101814.25;;;3.70;100.00
5574;BME280;2563;52.242;7.956;2023-05-19T04:05:05;101809.97;;;3.69;100.00
5574;BME280;2563;52.242;7.956;2023-05-19T04:07:31;101809.94;;;3.68;100.00
5574;BME280;2563;52.242;7.956;2023-05-19T04:09:56;101810.66;;;3.62;100.00
5574;BME280;2563;52.242;7.956;2023-05-19T04:12:22;101815.88;;;3.68;100.00
5574;BME280;2563;52.242;7.956;2023-05-19T04:14:47;101823.28;;;3.94;100.00
5574;BME280;2563;52.242;7.956;2023-05-19T04:17:13;101820.59;;;5.07;100.00
5574;BME280;2563;52.242;7.956;2023-05-19T04:19:38;101813.13;;;5.67;100.00
5574;BME280;2563;52.242;7.956;2023-05-19T04:22:04;101806.22;;;6.14;100.00
5574;BME280;2563;52.242;7.956;2023-05-19T04:24:30;101792.00;;;6.33;100.00
5574;BME280;2563;52.242;7.956;2023-05-19T04:26:55;101795.69;;;6.55;100.00
5574;BME280;2563;52.242;7.956;2023-05-19T04:29:21;101796.78;;;6.73;100.00
5574;BME280;2563;52.242;7.956;2023-05-19T04:31:48;101777.06;;;6.67;100.00
5574;BME280;2563;52.242;7.956;2023-05-19T04:34:13;101765.44;;;6.21;100.00
5574;BME280;2563;52.242;7.956;2023-05-19T04:36:39;101764.16;;;5.92;100.00
5574;BME280;2563;52.242;7.956;2023-05-19T04:39:04;101769.94;;;5.81;100.00
5574;BME280;2563;52.242;7.956;2023-05-19T04:41:33;101773.25;;;5.75;100.00
5574;BME280;2563;52.242;7.956;2023-05-19T04:43:58;101774.00;;;5.69;100.00
5574;BME280;2563;52.242;7.956;2023-05-19T04:46:25;101775.75;;;5.70;100.00
5574;BME280;2563;52.242;7.956;2023-05-19T04:48:51;101768.88;;;5.68;100.00
5574;BME280;2563;52.242;7.956;2023-05-19T04:51:18;101779.97;;;5.68;100.00
5574;BME280;2563;52.242;7.956;2023-05-19T04:53:44;101781.66;;;5.69;100.00
5574;BME280;2563;52.242;7.956;2023-05-19T04:56:09;101780.03;;;5.74;100.00
5574;BME280;2563;52.242;7.956;2023-05-19T04:58:39;101784.38;;;5.79;100.00
5574;BME280;2563;52.242;7.956;2023-05-19T05:01:05;101783.63;;;5.86;100.00
5574;BME280;2563;52.242;7.956;2023-05-19T05:03:31;101782.00;;;5.91;100.00
5574;BME280;2563;52.242;7.956;2023-05-19T05:05:58;101782.94;;;5.96;100.00
5574;BME280;2563;52.242;7.956;2023-05-19T05:08:24;101783.97;;;6.07;100.00
5574;BME280;2563;52.242;7.956;2023-05-19T05:10:50;101785.81;;;6.16;100.00
5574;BME280;2563;52.242;7.956;2023-05-19T05:13:20;101779.16;;;6.29;100.00
5574;BME280;2563;52.242;7.956;2023-05-19T05:15:46;101776.00;;;6.48;100.00
5574;BME280;2563;52.242;7.956;2023-05-19T05:18:13;101781.47;;;6.79;100.00
5574;BME280;2563;52.242;7.956;2023-05-19T05:20:40;101781.16;;;7.32;100.00
5574;BME280;2563;52.242;7.956;2023-05-19T05:23:06;101767.88;;;7.76;100.00
5574;BME280;2563;52.242;7.956;2023-05-19T05:25:34;101784.34;;;8.12;100.00
5574;BME280;2563;52.242;7.956;2023-05-19T05:27:59;101761.44;;;8.41;100.00
5574;BME280;2563;52.242;7.956;2023-05-19T05:30:29;101765.81;;;8.78;100.00
5574;BME280;2563;52.242;7.956;2023-05-19T05:32:54;101754.72;;;8.85;100.00
5574;BME280;2563;52.242;7.956;2023-05-19T05:35:22;101758.16;;;9.02;100.00
5574;BME280;2563;52.242;7.956;2023-05-19T05:37:48;101759.91;;;9.22;100.00
5574;BME280;2563;52.242;7.956;2023-05-19T05:40:13;101760.78;;;9.42;100.00
5574;BME280;2563;52.242;7.956;2023-05-19T05:42:39;101762.47;;;9.65;100.00
5574;BME280;2563;52.242;7.956;2023-05-19T05:45:05;101759.88;;;9.88;100.00
5574;BME280;2563;52.242;7.956;2023-05-19T05:47:31;101751.22;;;10.27;100.00
5574;BME280;2563;52.242;7.956;2023-05-19T05:49:57;101746.84;;;10.46;100.00
5574;BME280;2563;52.242;7.956;2023-05-19T05:52:27;101744.19;;;10.71;100.00
5574;BME280;2563;52.242;7.956;2023-05-19T05:54:54;101746.72;;;10.77;100.00
5574;BME280;2563;52.242;7.956;2023-05-19T05:57:19;101756.97;;;10.88;100.00
5574;BME280;2563;52.242;7.956;2023-05-19T05:59:45;101753.28;;;11.22;100.00
5574;BME280;2563;52.242;7.956;2023-05-19T06:02:11;101748.53;;;11.77;100.00
5574;BME280;2563;52.242;7.956;2023-05-19T06:04:36;101734.75;;;11.78;100.00
5574;BME280;2563;52.242;7.956;2023-05-19T06:07:02;101753.00;;;11.56;100.00
5574;BME280;2563;52.242;7.956;2023-05-19T06:09:27;101761.28;;;11.92;100.00
5574;BME280;2563;52.242;7.956;2023-05-19T06:11:55;101759.22;;;12.25;100.00
5574;BME280;2563;52.242;7.956;2023-05-19T06:14:21;101765.69;;;11.79;100.00
5574;BME280;2563;52.242;7.956;2023-05-19T06:16:46;101774.66;;;12.31;100.00
5574;BME280;2563;52.242;7.956;2023-05-19T06:19:12;101780.56;;;12.41;100.00
5574;BME280;2563;52.242;7.956;2023-05-19T06:21:38;101794.78;;;12.74;100.00
5574;BME280;2563;52.242;7.956;2023-05-19T06:24:03;101799.91;;;12.77;100.00
5574;BME280;2563;52.242;7.956;2023-05-19T06:26:29;101805.50;;;13.08;100.00
5574;BME280;2563;52.242;7.956;2023-05-19T06:28:54;101822.06;;;13.55;100.00
5574;BME280;2563;52.242;7.956;2023-05-19T06:31:19;101817.56;;;14.15;100.00
5574;BME280;2563;52.242;7.956;2023-05-19T06:33:46;101819.81;;;14.32;100.00
5574;BME280;2563;52.242;7.956;2023-05-19T06:36:11;101824.34;;;14.22;100.00
5574;BME280;2563;52.242;7.956;2023-05-19T06:38:37;101830.38;;;14.22;100.00
5574;BME280;2563;52.242;7.956;2023-05-19T06:41:03;101833.69;;;14.31;100.00
5574;BME280;2563;52.242;7.956;2023-05-19T06:43:28;101843.84;;;14.41;100.00
5574;BME280;2563;52.242;7.956;2023-05-19T06:45:54;101850.31;;;14.65;100.00
5574;BME280;2563;52.242;7.956;2023-05-19T06:48:20;101849.25;;;14.74;100.00
5574;BME280;2563;52.242;7.956;2023-05-19T06:50:45;101857.13;;;14.70;100.00
5574;BME280;2563;52.242;7.956;2023-05-19T06:53:10;101864.97;;;15.08;100.00
5574;BME280;2563;52.242;7.956;2023-05-19T06:55:36;101873.34;;;15.20;100.00
5574;BME280;2563;52.242;7.956;2023-05-19T06:58:01;101876.47;;;15.34;100.00
5574;BME280;2563;52.242;7.956;2023-05-19T07:00:26;101876.03;;;15.15;100.00
5574;BME280;2563;52.242;7.956;2023-05-19T07:02:52;101878.72;;;15.10;100.00
5574;BME280;2563;52.242;7.956;2023-05-19T07:05:17;101876.59;;;16.03;100.00
5574;BME280;2563;52.242;7.956;2023-05-19T07:07:43;101882.28;;;16.50;100.00
5574;BME280;2563;52.242;7.956;2023-05-19T07:10:08;101879.56;;;16.54;100.00
5574;BME280;2563;52.242;7.956;2023-05-19T07:12:34;101869.88;;;16.59;100.00
5574;BME280;2563;52.242;7.956;2023-05-19T07:14:59;101878.16;;;16.72;100.00
5574;BME280;2563;52.242;7.956;2023-05-19T07:17:25;101876.59;;;16.98;100.00
5574;BME280;2563;52.242;7.956;2023-05-19T07:19:50;101871.63;;;17.47;100.00
5574;BME280;2563;52.242;7.956;2023-05-19T07:22:15;101878.31;;;16.36;100.00
5574;BME280;2563;52.242;7.956;2023-05-19T07:24:44;101874.81;;;17.28;100.00
5574;BME280;2563;52.242;7.956;2023-05-19T07:30:13;101864.41;;;17.83;100.00
5574;BME280;2563;52.242;7.956;2023-05-19T07:32:39;101863.44;;;17.85;100.00
5574;BME280;2563;52.242;7.956;2023-05-19T07:35:05;101866.97;;;17.56;100.00
5574;BME280;2563;52.242;7.956;2023-05-19T07:37:30;101864.59;;;18.03;100.00
5574;BME280;2563;52.242;7.956;2023-05-19T07:40:08;101866.75;;;18.16;100.00
5574;BME280;2563;52.242;7.956;2023-05-19T07:42:37;101871.34;;;18.34;100.00
5574;BME280;2563;52.242;7.956;2023-05-19T07:47:41;101881.09;;;18.02;100.00
5574;BME280;2563;52.242;7.956;2023-05-19T07:50:17;101876.06;;;18.71;100.00
5574;BME280;2563;52.242;7.956;2023-05-19T07:52:59;101876.38;;;18.87;100.00
5574;BME280;2563;52.242;7.956;2023-05-19T07:55:24;101869.09;;;18.48;100.00
5574;BME280;2563;52.242;7.956;2023-05-19T07:57:50;101870.13;;;18.68;100.00
5574;BME280;2563;52.242;7.956;2023-05-19T08:00:19;101874.91;;;18.55;100.00
5574;BME280;2563;52.242;7.956;2023-05-19T08:03:29;101865.41;;;18.29;100.00
5574;BME280;2563;52.242;7.956;2023-05-19T08:06:00;101883.22;;;19.13;100.00
5574;BME280;2563;52.242;7.956;2023-05-19T08:09:18;101874.81;;;19.27;100.00
5574;BME280;2563;52.242;7.956;2023-05-19T08:11:53;101883.97;;;18.45;100.00
5574;BME280;2563;52.242;7.956;2023-05-19T08:14:37;101868.31;;;19.60;100.00
5574;BME280;2563;52.242;7.956;2023-05-19T08:17:30;101854.00;;;20.50;100.00
5574;BME280;2563;52.242;7.956;2023-05-19T08:19:58;101829.59;;;20.31;100.00
5574;BME280;2563;52.242;7.956;2023-05-19T08:22:44;101816.00;;;20.62;100.00
5574;BME280;2563;52.242;7.956;2023-05-19T08:25:09;101813.88;;;19.91;100.00
5574;BME280;2563;52.242;7.956;2023-05-19T08:27:38;101803.78;;;20.42;100.00
5574;BME280;2563;52.242;7.956;2023-05-19T08:30:29;101795.38;;;19.96;100.00
5574;BME280;2563;52.242;7.956;2023-05-19T08:40:30;101813.59;;;20.18;100.00
5574;BME280;2563;52.242;7.956;2023-05-19T08:43:07;101804.16;;;19.95;100.00
5574;BME280;2563;52.242;7.956;2023-05-19T08:45:55;101758.47;;;20.42;100.00
5574;BME280;2563;52.242;7.956;2023-05-19T08:49:10;101763.06;;;20.17;100.00
5574;BME280;2563;52.242;7.956;2023-05-19T08:51:45;101783.69;;;19.64;100.00
5574;BME280;2563;52.242;7.956;2023-05-19T08:54:20;101838.84;;;20.77;100.00
5574;BME280;2563;52.242;7.956;2023-05-19T09:00:04;101834.63;;;20.35;100.00
5574;BME280;2563;52.242;7.956;2023-05-19T09:02:39;101787.22;;;21.35;100.00
5574;BME280;2563;52.242;7.956;2023-05-19T09:05:12;101766.63;;;21.27;100.00
5574;BME280;2563;52.242;7.956;2023-05-19T09:11:00;101805.19;;;20.11;100.00
5574;BME280;2563;52.242;7.956;2023-05-19T09:13:33;101815.50;;;21.09;100.00
5574;BME280;2563;52.242;7.956;2023-05-19T09:16:17;101810.03;;;20.96;100.00
5574;BME280;2563;52.242;7.956;2023-05-19T09:19:03;101806.63;;;20.94;100.00
5574;BME280;2563;52.242;7.956;2023-05-19T09:21:29;101801.56;;;20.91;97.43
5574;BME280;2563;52.242;7.956;2023-05-19T09:23:56;101796.97;;;21.14;95.67
5574;BME280;2563;52.242;7.956;2023-05-19T09:26:22;101804.69;;;22.04;94.86
5574;BME280;2563;52.242;7.956;2023-05-19T09:28:48;101791.41;;;21.02;90.80
5574;BME280;2563;52.242;7.956;2023-05-19T09:31:13;101805.69;;;21.51;89.64
5574;BME280;2563;52.242;7.956;2023-05-19T09:33:40;101802.50;;;22.12;87.68
5574;BME280;2563;52.242;7.956;2023-05-19T09:36:09;101808.50;;;22.14;83.56
5574;BME280;2563;52.242;7.956;2023-05-19T09:38:36;101787.72;;;21.60;81.43
5574;BME280;2563;52.242;7.956;2023-05-19T09:41:04;101789.16;;;21.66;79.48
5574;BME280;2563;52.242;7.956;2023-05-19T09:43:31;101788.41;;;21.81;80.05
5574;BME280;2563;52.242;7.956;2023-05-19T09:46:08;101781.44;;;21.80;79.33
5574;BME280;2563;52.242;7.956;2023-05-19T09:48:35;101771.44;;;21.36;78.00
5574;BME280;2563;52.242;7.956;2023-05-19T09:51:01;101779.97;;;21.92;78.55
5574;BME280;2563;52.242;7.956;2023-05-19T09:53:28;101783.88;;;22.01;76.53
5574;BME280;2563;52.242;7.956;2023-05-19T09:55:55;101780.03;;;21.57;76.61
5574;BME280;2563;52.242;7.956;2023-05-19T09:58:24;101764.03;;;21.10;76.42
5574;BME280;2563;52.242;7.956;2023-05-19T10:00:50;101779.00;;;21.42;79.21
5574;BME280;2563;52.242;7.956;2023-05-19T10:03:16;101773.94;;;21.38;78.69
5574;BME280;2563;52.242;7.956;2023-05-19T10:05:43;101750.44;;;19.47;77.26
5574;BME280;2563;52.242;7.956;2023-05-19T10:08:10;101755.63;;;19.26;81.49
5574;BME280;2563;52.242;7.956;2023-05-19T10:10:37;101767.97;;;20.99;84.29
5574;BME280;2563;52.242;7.956;2023-05-19T10:13:03;101760.34;;;21.99;82.23
5574;BME280;2563;52.242;7.956;2023-05-19T10:15:29;101751.59;;;21.13;77.99
5574;BME280;2563;52.242;7.956;2023-05-19T10:17:55;101757.16;;;21.07;79.12
5574;BME280;2563;52.242;7.956;2023-05-19T10:20:21;101756.66;;;21.53;80.51
5574;BME280;2563;52.242;7.956;2023-05-19T10:22:46;101766.06;;;21.90;79.49
5574;BME280;2563;52.242;7.956;2023-05-19T10:25:13;101764.00;;;22.30;79.48
5574;BME280;2563;52.242;7.956;2023-05-19T10:27:56;101744.13;;;20.88;76.59
5574;BME280;2563;52.242;7.956;2023-05-19T10:30:29;101744.59;;;21.14;77.58
5574;BME280;2563;52.242;7.956;2023-05-19T10:32:59;101757.25;;;21.40;76.20
5574;BME280;2563;52.242;7.956;2023-05-19T10:46:57;101734.16;;;22.15;72.91
5574;BME280;2563;52.242;7.956;2023-05-19T10:49:22;101737.19;;;21.41;72.15
5574;BME280;2563;52.242;7.956;2023-05-19T10:51:48;101743.00;;;22.30;73.11
5574;BME280;2563;52.242;7.956;2023-05-19T10:54:14;101730.84;;;23.37;71.23
5574;BME280;2563;52.242;7.956;2023-05-19T10:56:45;101738.44;;;23.27;70.41
5574;BME280;2563;52.242;7.956;2023-05-19T10:59:33;101745.41;;;23.57;69.62
5574;BME280;2563;52.242;7.956;2023-05-19T11:02:03;101729.44;;;22.85;67.73
5574;BME280;2563;52.242;7.956;2023-05-19T11:07:04;101714.56;;;22.54;67.65
5574;BME280;2563;52.242;7.956;2023-05-19T11:09:30;101720.59;;;21.91;68.82
5574;BME280;2563;52.242;7.956;2023-05-19T11:12:01;101721.53;;;21.39;68.97
5574;BME280;2563;52.242;7.956;2023-05-19T11:14:31;101719.34;;;20.95;70.22
5574;BME280;2563;52.242;7.956;2023-05-19T11:16:57;101723.06;;;20.53;71.27
5574;BME280;2563;52.242;7.956;2023-05-19T11:19:30;101721.09;;;20.21;73.08
5574;BME280;2563;52.242;7.956;2023-05-19T11:21:56;101716.66;;;20.60;75.31
5574;BME280;2563;52.242;7.956;2023-05-19T11:27:28;101722.31;;;22.08;73.57
5574;BME280;2563;52.242;7.956;2023-05-19T11:32:34;101710.19;;;21.21;72.13
5574;BME280;2563;52.242;7.956;2023-05-19T11:35:03;101714.31;;;22.43;72.34
5574;BME280;2563;52.242;7.956;2023-05-19T11:37:31;101719.56;;;22.89;70.09
5574;BME280;2563;52.242;7.956;2023-05-19T11:39:57;101728.59;;;23.45;72.04
5574;BME280;2563;52.242;7.956;2023-05-19T11:42:25;101720.25;;;22.92;70.59
5574;BME280;2563;52.242;7.956;2023-05-19T11:44:54;101720.97;;;22.80;70.59
5574;BME280;2563;52.242;7.956;2023-05-19T11:47:19;101705.34;;;21.31;68.36
5574;BME280;2563;52.242;7.956;2023-05-19T11:49:49;101699.13;;;20.25;69.79
5574;BME280;2563;52.242;7.956;2023-05-19T11:52:16;101710.78;;;21.95;71.54
5574;BME280;2563;52.242;7.956;2023-05-19T11:54:41;101719.50;;;23.65;68.80
5574;BME280;2563;52.242;7.956;2023-05-19T11:57:08;101710.69;;;23.66;68.09
5574;BME280;2563;52.242;7.956;2023-05-19T11:59:38;101699.47;;;22.10;66.84
5574;BME280;2563;52.242;7.956;2023-05-19T12:04:42;101693.47;;;21.24;65.90
5574;BME280;2563;52.242;7.956;2023-05-19T12:07:10;101705.16;;;21.52;66.96
5574;BME280;2563;52.242;7.956;2023-05-19T12:09:36;101710.16;;;22.55;67.41
5574;BME280;2563;52.242;7.956;2023-05-19T12:12:02;101712.50;;;23.21;67.64
5574;BME280;2563;52.242;7.956;2023-05-19T12:14:29;101705.47;;;23.22;65.77
5574;BME280;2563;52.242;7.956;2023-05-19T12:16:55;101699.13;;;23.54;65.65
5574;BME280;2563;52.242;7.956;2023-05-19T12:19:24;101686.94;;;23.82;63.67
5574;BME280;2563;52.242;7.956;2023-05-19T12:21:50;101672.88;;;21.84;62.82
5574;BME280;2563;52.242;7.956;2023-05-19T12:24:17;101677.50;;;21.11;63.14
5574;BME280;2563;52.242;7.956;2023-05-19T12:26:42;101668.03;;;21.26;63.34
5574;BME280;2563;52.242;7.956;2023-05-19T12:29:08;101691.88;;;22.21;64.88
5574;BME280;2563;52.242;7.956;2023-05-19T12:31:33;101694.22;;;23.48;65.06
5574;BME280;2563;52.242;7.956;2023-05-19T12:33:59;101681.38;;;23.58;62.96
5574;BME280;2563;52.242;7.956;2023-05-19T12:36:25;101665.50;;;23.45;61.73
5574;BME280;2563;52.242;7.956;2023-05-19T12:38:54;101663.28;;;22.33;62.38
5574;BME280;2563;52.242;7.956;2023-05-19T12:41:19;101659.44;;;20.89;62.67
5574;BME280;2563;52.242;7.956;2023-05-19T12:43:45;101666.25;;;20.38;65.62
5574;BME280;2563;52.242;7.956;2023-05-19T12:46:11;101666.34;;;20.73;66.88
5574;BME280;2563;52.242;7.956;2023-05-19T12:48:43;101669.03;;;20.71;67.49
5574;BME280;2563;52.242;7.956;2023-05-19T12:51:08;101669.13;;;21.73;66.98
5574;BME280;2563;52.242;7.956;2023-05-19T12:53:36;101676.09;;;23.29;66.70
5574;BME280;2563;52.242;7.956;2023-05-19T12:56:09;101653.09;;;21.95;62.98
5574;BME280;2563;52.242;7.956;2023-05-19T12:58:35;101644.91;;;20.47;62.95
5574;BME280;2563;52.242;7.956;2023-05-19T13:01:01;101650.84;;;19.94;64.50
5574;BME280;2563;52.242;7.956;2023-05-19T13:03:26;101664.34;;;20.78;65.82
5574;BME280;2563;52.242;7.956;2023-05-19T13:05:52;101669.28;;;20.84;66.73
5574;BME280;2563;52.242;7.956;2023-05-19T13:08:19;101673.66;;;22.18;66.45
5574;BME280;2563;52.242;7.956;2023-05-19T13:10:46;101667.88;;;23.05;64.68
5574;BME280;2563;52.242;7.956;2023-05-19T13:13:12;101657.16;;;23.67;61.70
5574;BME280;2563;52.242;7.956;2023-05-19T13:15:40;101659.28;;;24.04;61.27
5574;BME280;2563;52.242;7.956;2023-05-19T13:18:07;101632.03;;;22.12;59.82
5574;BME280;2563;52.242;7.956;2023-05-19T13:20:34;101646.41;;;21.89;61.62
5574;BME280;2563;52.242;7.956;2023-05-19T13:23:00;101638.34;;;21.10;61.95
5574;BME280;2563;52.242;7.956;2023-05-19T13:25:26;101636.09;;;20.48;62.49
5574;BME280;2563;52.242;7.956;2023-05-19T13:27:52;101645.38;;;21.42;64.58
5574;BME280;2563;52.242;7.956;2023-05-19T13:30:18;101630.94;;;21.84;63.34
5574;BME280;2563;52.242;7.956;2023-05-19T13:32:45;101627.19;;;22.52;62.82
5574;BME280;2563;52.242;7.956;2023-05-19T13:35:11;101628.44;;;22.91;61.66
5574;BME280;2563;52.242;7.956;2023-05-19T13:37:37;101627.03;;;23.16;60.36
5574;BME280;2563;52.242;7.956;2023-05-19T13:40:04;101618.59;;;22.18;59.31
5574;BME280;2563;52.242;7.956;2023-05-19T13:42:31;101608.94;;;20.70;60.32
5574;BME280;2563;52.242;7.956;2023-05-19T13:44:56;101634.81;;;21.93;63.39
5574;BME280;2563;52.242;7.956;2023-05-19T13:47:22;101633.44;;;22.65;62.65
5574;BME280;2563;52.242;7.956;2023-05-19T13:49:48;101618.03;;;21.48;61.50
5574;BME280;2563;52.242;7.956;2023-05-19T13:52:13;101616.88;;;20.49;62.33
5574;BME280;2563;52.242;7.956;2023-05-19T13:54:39;101631.09;;;20.07;64.07
5574;BME280;2563;52.242;7.956;2023-05-19T13:57:04;101628.47;;;20.80;63.66
5574;BME280;2563;52.242;7.956;2023-05-19T13:59:30;101648.19;;;21.88;64.59
5574;BME280;2563;52.242;7.956;2023-05-19T14:01:56;101632.31;;;22.39;62.95
5574;BME280;2563;52.242;7.956;2023-05-19T14:04:22;101631.47;;;22.39;61.77
5574;BME280;2563;52.242;7.956;2023-05-19T14:06:50;101625.19;;;21.94;62.58
5574;BME280;2563;52.242;7.956;2023-05-19T14:09:16;101622.31;;;20.98;61.78